createdAt,value
2018-04-24T00:01:52.660Z,100960.65
2018-04-24T00:04:22.132Z,100967.86
2018-04-24T00:06:50.647Z,100967.97
2018-04-24T00:09:18.994Z,100976.98
2018-04-24T00:11:48.149Z,100972.39
2018-04-24T00:14:16.725Z,100972.20
2018-04-24T00:16:45.091Z,100962.36
2018-04-24T00:19:13.592Z,100963.69
2018-04-24T00:21:42.359Z,100968.69
2018-04-24T00:24:11.038Z,100966.17
2018-04-24T00:26:39.421Z,100964.52
2018-04-24T00:29:07.771Z,100964.07
2018-04-24T00:31:36.152Z,100969.31
2018-04-24T00:34:04.679Z,100961.88
2018-04-24T00:36:33.142Z,100958.64
2018-04-24T00:39:02.095Z,100959.17
2018-04-24T00:41:30.519Z,100955.91
2018-04-24T00:43:59.800Z,100960.70
2018-04-24T00:46:28.225Z,100968.38
2018-04-24T00:48:56.857Z,100973.05
2018-04-24T00:51:25.472Z,100978.63
2018-04-24T00:53:54.374Z,100982.02
2018-04-24T00:56:23.741Z,100983.04
2018-04-24T00:58:52.191Z,100981.06
2018-04-24T01:01:20.951Z,100984.61
2018-04-24T01:03:50.219Z,100977.52
2018-04-24T01:06:18.696Z,100976.55
2018-04-24T01:08:47.185Z,100977.84
2018-04-24T01:11:15.570Z,100981.30
2018-04-24T01:13:43.907Z,100977.13
2018-04-24T01:16:12.255Z,100979.27
2018-04-24T01:18:40.604Z,100979.66
2018-04-24T01:21:09.112Z,100988.16
2018-04-24T01:23:37.556Z,100988.80
2018-04-24T01:26:06.259Z,100993.20
2018-04-24T01:28:34.750Z,101002.21
2018-04-24T01:31:03.151Z,100997.62
2018-04-24T01:33:32.414Z,101001.53
2018-04-24T01:36:00.759Z,100999.13
2018-04-24T01:38:29.419Z,100994.56
2018-04-24T01:40:58.238Z,100999.25
2018-04-24T01:43:26.591Z,100997.13
2018-04-24T01:45:55.093Z,100997.59
2018-04-24T01:48:24.555Z,100995.88
2018-04-24T01:50:53.596Z,100999.69
2018-04-24T01:53:22.562Z,100998.52
2018-04-24T01:55:51.119Z,101004.48
2018-04-24T01:58:19.547Z,101001.55
2018-04-24T02:00:48.129Z,101000.64
2018-04-24T02:03:16.504Z,100995.17
2018-04-24T02:05:44.839Z,100999.11
2018-04-24T02:08:13.450Z,101002.23
2018-04-24T02:10:42.207Z,101005.36
2018-04-24T02:13:10.539Z,101008.83
2018-04-24T02:15:38.912Z,100995.75
2018-04-24T02:18:07.263Z,100996.63
2018-04-24T02:20:36.018Z,101001.67
2018-04-24T02:23:04.642Z,101001.23
2018-04-24T02:25:33.085Z,101005.17
2018-04-24T02:28:01.993Z,101000.52
2018-04-24T02:30:30.811Z,100997.58
2018-04-24T02:32:59.336Z,101006.15
2018-04-24T02:35:27.691Z,101003.23
2018-04-24T02:37:56.036Z,101000.00
2018-04-24T02:40:24.973Z,101004.36
2018-04-24T02:42:54.069Z,101012.09
2018-04-24T02:45:22.941Z,101013.88
2018-04-24T02:47:51.509Z,101014.00
2018-04-24T02:50:20.536Z,101020.03
2018-04-24T02:52:48.918Z,101021.30
2018-04-24T02:55:17.256Z,101018.30
2018-04-24T02:57:45.600Z,101020.81
2018-04-24T03:00:13.948Z,101011.03
2018-04-24T03:02:42.287Z,101010.97
2018-04-24T03:05:11.093Z,101015.69
2018-04-24T03:07:39.687Z,101012.78
2018-04-24T03:10:08.202Z,101014.59
2018-04-24T03:12:36.578Z,101011.31
2018-04-24T03:15:05.061Z,101011.36
2018-04-24T03:17:33.432Z,101015.27
2018-04-24T03:20:02.347Z,101014.41
2018-04-24T03:22:30.741Z,101012.70
2018-04-24T03:24:59.142Z,101008.82
2018-04-24T03:27:27.649Z,101019.05
2018-04-24T03:29:56.139Z,101020.77
2018-04-24T03:32:24.685Z,101018.21
2018-04-24T03:34:53.201Z,101016.51
2018-04-24T03:37:21.701Z,101018.70
2018-04-24T03:39:50.095Z,101016.53
2018-04-24T03:42:18.686Z,101012.27
2018-04-24T03:44:47.232Z,101014.39
2018-04-24T03:47:15.916Z,101016.39
2018-04-24T03:49:44.348Z,101014.14
2018-04-24T03:52:12.697Z,101015.69
2018-04-24T03:54:41.371Z,101024.59
2018-04-24T03:57:09.792Z,101019.09
2018-04-24T03:59:39.079Z,101016.03
2018-04-24T04:02:07.605Z,101020.08
2018-04-24T04:04:36.249Z,101026.06
2018-04-24T04:07:05.022Z,101016.98
2018-04-24T04:09:33.741Z,101022.30
2018-04-24T04:12:03.323Z,101018.42
2018-04-24T04:14:33.567Z,101024.41
2018-04-24T04:17:14.509Z,101024.33
2018-04-24T04:19:54.923Z,101024.38
2018-04-24T04:22:35.346Z,101029.75
2018-04-24T04:25:04.097Z,101021.45
2018-04-24T04:27:33.421Z,101023.21
2018-04-24T04:30:02.047Z,101024.64
2018-04-24T04:32:30.492Z,101017.48
2018-04-24T04:34:59.421Z,101019.17
2018-04-24T04:37:27.920Z,101022.08
2018-04-24T04:39:56.292Z,101019.43
2018-04-24T04:42:24.915Z,101014.22
2018-04-24T04:44:53.664Z,101014.97
2018-04-24T04:47:22.428Z,101014.82
2018-04-24T04:49:51.243Z,101017.26
2018-04-24T04:52:19.981Z,101009.89
2018-04-24T04:54:48.659Z,101011.40
2018-04-24T04:57:17.687Z,101014.33
2018-04-24T04:59:46.108Z,101018.92
2018-04-24T05:02:14.694Z,101017.16
2018-04-24T05:04:43.044Z,101017.88
2018-04-24T05:07:11.403Z,101008.74
2018-04-24T05:09:39.934Z,101013.80
2018-04-24T05:12:08.303Z,101010.30
2018-04-24T05:14:37.794Z,101022.12
2018-04-24T05:17:06.223Z,101013.66
2018-04-24T05:19:34.628Z,101020.83
2018-04-24T05:22:03.064Z,101017.04
2018-04-24T05:24:31.491Z,101011.09
2018-04-24T05:27:00.144Z,101017.02
2018-04-24T05:29:28.516Z,101013.09
2018-04-24T05:31:56.992Z,101016.98
2018-04-24T05:34:25.412Z,101023.10
2018-04-24T05:36:54.363Z,101025.92
2018-04-24T05:39:22.712Z,101021.53
2018-04-24T05:41:51.543Z,101026.71
2018-04-24T05:44:20.391Z,101022.88
2018-04-24T05:46:50.380Z,101025.31
2018-04-24T05:49:18.800Z,101027.77
2018-04-24T05:51:47.144Z,101022.96
2018-04-24T05:54:15.502Z,101024.59
2018-04-24T05:56:44.484Z,101032.45
2018-04-24T05:59:13.465Z,101025.89
2018-04-24T06:01:41.821Z,101028.62
2018-04-24T06:04:11.274Z,101038.75
2018-04-24T06:06:39.950Z,101034.66
2018-04-24T06:09:08.803Z,101037.53
2018-04-24T06:11:37.936Z,101034.80
2018-04-24T06:14:06.379Z,101026.74
2018-04-24T06:16:34.912Z,101035.48
2018-04-24T06:19:03.425Z,101034.66
2018-04-24T06:21:31.877Z,101035.48
2018-04-24T06:24:00.455Z,101032.44
2018-04-24T06:26:28.877Z,101040.37
2018-04-24T06:28:58.529Z,101043.88
2018-04-24T06:31:26.893Z,101042.59
2018-04-24T06:33:56.260Z,101038.56
2018-04-24T06:36:24.683Z,101038.93
2018-04-24T06:38:53.376Z,101039.41
2018-04-24T06:41:22.038Z,101040.14
2018-04-24T06:43:51.799Z,101044.97
2018-04-24T06:46:20.145Z,101038.69
2018-04-24T06:48:48.824Z,101039.25
2018-04-24T06:51:18.149Z,101035.57
2018-04-24T06:53:47.000Z,101047.50
2018-04-24T06:56:15.361Z,101048.09
2018-04-24T06:58:44.735Z,101053.80
2018-04-24T07:01:13.201Z,101045.03
2018-04-24T07:03:42.291Z,101060.69
2018-04-24T07:06:11.333Z,101050.02
2018-04-24T07:08:39.787Z,101053.80
2018-04-24T07:11:08.875Z,101064.50
2018-04-24T07:13:37.533Z,101064.06
2018-04-24T07:16:06.851Z,101062.83
2018-04-24T07:18:36.082Z,101062.08
2018-04-24T07:21:04.432Z,101070.00
2018-04-24T07:23:33.515Z,101059.07
2018-04-24T07:26:01.955Z,101068.13
2018-04-24T07:28:30.850Z,101057.34
2018-04-24T07:30:59.671Z,101053.77
2018-04-24T07:33:28.149Z,101047.08
2018-04-24T07:35:56.631Z,101055.00
2018-04-24T07:38:25.221Z,101068.50
2018-04-24T07:40:54.449Z,101056.91
2018-04-24T07:43:22.855Z,101066.55
2018-04-24T07:45:51.267Z,101062.16
2018-04-24T07:48:19.908Z,101055.33
2018-04-24T07:50:48.316Z,101062.03
2018-04-24T07:53:16.769Z,101065.53
2018-04-24T07:55:45.799Z,101057.08
2018-04-24T07:58:14.191Z,101052.95
2018-04-24T08:00:42.628Z,101051.62
2018-04-24T08:03:11.313Z,101051.97
2018-04-24T08:05:39.668Z,101062.05
2018-04-24T08:08:08.060Z,101051.34
2018-04-24T08:10:36.453Z,101060.02
2018-04-24T08:13:04.802Z,101059.89
2018-04-24T08:15:33.185Z,101075.53
2018-04-24T08:18:01.637Z,101055.66
2018-04-24T08:20:30.012Z,101069.12
2018-04-24T08:22:58.410Z,101057.66
2018-04-24T08:25:26.890Z,101051.34
2018-04-24T08:27:55.236Z,101060.45
2018-04-24T08:30:24.952Z,101061.41
2018-04-24T08:32:54.415Z,101069.02
2018-04-24T08:35:23.185Z,101069.42
2018-04-24T08:37:52.066Z,101059.80
2018-04-24T08:40:20.469Z,101052.80
2018-04-24T08:42:48.845Z,101057.74
2018-04-24T08:45:17.585Z,101053.25
2018-04-24T08:47:47.996Z,101054.25
2018-04-24T08:50:16.966Z,101048.06
2018-04-24T08:52:45.343Z,101047.52
2018-04-24T08:55:13.766Z,101050.63
2018-04-24T08:57:42.095Z,101037.23
2018-04-24T09:00:10.450Z,101034.30
2018-04-24T09:02:39.055Z,101037.95
2018-04-24T09:05:07.413Z,101042.22
2018-04-24T09:07:35.752Z,101036.77
2018-04-24T09:10:04.119Z,101034.70
2018-04-24T09:12:32.474Z,101024.29
2018-04-24T09:15:01.109Z,101018.45
2018-04-24T09:17:30.189Z,101010.12
2018-04-24T09:19:58.749Z,101004.98
2018-04-24T09:22:27.712Z,101013.72
2018-04-24T09:24:56.118Z,100998.94
2018-04-24T09:27:24.788Z,101003.69
2018-04-24T09:29:58.857Z,101000.97
2018-04-24T09:32:27.449Z,100996.93
2018-04-24T09:34:56.495Z,101012.13
2018-04-24T09:37:24.855Z,100992.05
2018-04-24T09:39:53.546Z,101006.59
2018-04-24T09:42:22.525Z,101010.66
2018-04-24T09:44:50.990Z,101010.66
2018-04-24T09:47:19.433Z,100986.75
2018-04-24T09:49:48.675Z,100986.10
2018-04-24T09:52:17.087Z,100984.73
2018-04-24T09:54:45.435Z,100980.96
2018-04-24T09:57:13.813Z,100982.55
2018-04-24T09:59:42.241Z,100953.68
2018-04-24T10:02:11.179Z,100958.34
2018-04-24T10:04:39.488Z,100974.00
2018-04-24T10:07:08.299Z,100970.77
2018-04-24T10:09:36.974Z,100963.41
2018-04-24T10:12:06.371Z,100968.63
2018-04-24T10:14:34.813Z,100973.91
2018-04-24T10:17:03.604Z,100968.00
2018-04-24T10:19:33.078Z,100970.15
2018-04-24T10:22:02.304Z,100973.02
2018-04-24T10:24:30.712Z,100968.19
2018-04-24T10:26:59.430Z,100969.92
2018-04-24T10:29:27.817Z,100972.50
2018-04-24T10:31:56.578Z,100963.83
2018-04-24T10:34:25.309Z,100957.56
2018-04-24T10:36:53.927Z,100978.39
2018-04-24T10:39:22.283Z,100959.25
2018-04-24T10:41:50.640Z,100962.14
2018-04-24T10:44:20.487Z,100969.69
2018-04-24T10:46:48.849Z,100961.42
2018-04-24T10:49:18.368Z,100947.21
2018-04-24T10:51:46.808Z,100943.52
2018-04-24T10:54:15.962Z,100941.17
2018-04-24T10:56:44.370Z,100952.23
2018-04-24T10:59:13.208Z,100941.41
2018-04-24T11:01:41.568Z,100960.70
2018-04-24T11:04:11.171Z,100934.72
2018-04-24T11:06:40.503Z,100935.45
2018-04-24T11:09:09.101Z,100936.03
2018-04-24T11:11:37.463Z,100924.48
2018-04-24T11:14:06.145Z,100941.63
2018-04-24T11:16:34.962Z,100931.79
2018-04-24T11:19:03.579Z,100906.14
2018-04-24T11:21:32.097Z,100917.98
2018-04-24T11:24:00.452Z,100920.23
2018-04-24T11:26:29.122Z,100924.34
2018-04-24T11:28:57.485Z,100932.16
2018-04-24T11:31:25.835Z,100936.16
2018-04-24T11:33:54.190Z,100918.66
2018-04-24T11:36:22.970Z,100930.38
2018-04-24T11:38:51.441Z,100922.56
2018-04-24T11:41:20.140Z,100919.53
2018-04-24T11:43:49.225Z,100909.67
2018-04-24T11:46:17.551Z,100900.19
2018-04-24T11:48:45.943Z,100909.84
2018-04-24T11:51:14.920Z,100907.56
2018-04-24T11:53:43.380Z,100909.02
2018-04-24T11:56:12.004Z,100910.56
2018-04-24T11:58:40.354Z,100919.73
2018-04-24T12:01:09.427Z,100929.21
2018-04-24T12:03:38.513Z,100932.48
2018-04-24T12:06:07.321Z,100926.45
2018-04-24T12:08:36.065Z,100928.42
2018-04-24T12:11:04.721Z,100924.09
2018-04-24T12:13:34.610Z,100926.45
2018-04-24T12:16:03.293Z,100920.23
2018-04-24T12:18:31.793Z,100925.70
2018-04-24T12:21:00.218Z,100916.60
2018-04-24T12:23:29.000Z,100910.99
2018-04-24T12:25:58.423Z,100915.12
2018-04-24T12:28:26.794Z,100915.84
2018-04-24T12:30:55.526Z,100896.70
2018-04-24T12:33:24.507Z,100916.33
2018-04-24T12:35:53.260Z,100893.83
2018-04-24T12:38:21.838Z,100882.26
2018-04-24T12:40:50.341Z,100884.28
2018-04-24T12:43:26.825Z,100883.27
2018-04-24T12:45:56.060Z,100885.20
2018-04-24T12:48:24.412Z,100881.03
2018-04-24T12:50:52.905Z,100878.87
2018-04-24T12:53:21.298Z,100860.41
2018-04-24T12:55:49.912Z,100869.73
2018-04-24T12:58:18.365Z,100845.67
2018-04-24T13:00:48.479Z,100853.61
2018-04-24T13:03:17.202Z,100849.36
2018-04-24T13:05:45.957Z,100850.63
2018-04-24T13:08:14.766Z,100840.59
2018-04-24T13:10:43.221Z,100849.66
2018-04-24T13:13:11.693Z,100856.59
2018-04-24T13:15:40.122Z,100840.44
2018-04-24T13:18:08.648Z,100849.66
2018-04-24T13:20:37.589Z,100845.71
2018-04-24T13:23:06.032Z,100841.33
2018-04-24T13:25:34.445Z,100833.09
2018-04-24T13:28:02.847Z,100824.44
2018-04-24T13:30:31.967Z,100833.77
2018-04-24T13:33:00.739Z,100833.53
2018-04-24T13:35:29.494Z,100829.31
2018-04-24T13:37:57.894Z,100825.38
2018-04-24T13:40:26.262Z,100815.52
2018-04-24T13:42:55.086Z,100807.15
2018-04-24T13:45:23.521Z,100799.18
2018-04-24T13:47:51.884Z,100787.78
2018-04-24T13:50:20.288Z,100790.03
2018-04-24T13:52:48.645Z,100797.44
2018-04-24T13:55:17.253Z,100801.77
2018-04-24T13:57:46.046Z,100788.96
2018-04-24T14:00:14.407Z,100784.27
2018-04-24T14:02:43.036Z,100791.19
2018-04-24T14:05:11.399Z,100794.67
2018-04-24T14:07:39.848Z,100793.52
2018-04-24T14:10:08.252Z,100789.59
2018-04-24T14:12:36.645Z,100804.94
2018-04-24T14:15:05.429Z,100797.88
2018-04-24T14:17:33.799Z,100797.47
2018-04-24T14:20:02.182Z,100787.66
2018-04-24T14:22:30.549Z,100799.30
2018-04-24T14:24:58.902Z,100789.63
2018-04-24T14:27:27.292Z,100793.52
2018-04-24T14:29:55.680Z,100778.44
2018-04-24T14:32:24.411Z,100784.28
2018-04-24T14:34:52.923Z,100784.31
2018-04-24T14:37:21.365Z,100775.27
2018-04-24T14:39:49.727Z,100768.29
2018-04-24T14:42:23.119Z,100759.97
2018-04-24T14:44:54.891Z,100756.39
2018-04-24T14:47:23.546Z,100752.05
2018-04-24T14:49:52.943Z,100741.91
2018-04-24T14:52:21.677Z,100743.97
2018-04-24T14:54:50.696Z,100755.35
2018-04-24T14:57:19.152Z,100753.38
2018-04-24T14:59:47.511Z,100743.98
2018-04-24T15:02:17.074Z,100746.18
2018-04-24T15:04:45.567Z,100751.83
2018-04-24T15:07:14.073Z,100746.09
2018-04-24T15:09:44.924Z,100756.41
2018-04-24T15:12:13.459Z,100750.75
2018-04-24T15:14:41.957Z,100747.34
2018-04-24T15:17:10.718Z,100743.84
2018-04-24T15:19:39.223Z,100740.20
2018-04-24T15:22:07.670Z,100736.72
2018-04-24T15:24:36.029Z,100735.62
2018-04-24T15:27:04.674Z,100769.31
2018-04-24T15:29:33.366Z,100743.27
2018-04-24T15:32:01.945Z,100732.45
2018-04-24T15:34:35.414Z,100747.11
2018-04-24T15:37:05.783Z,100741.69
2018-04-24T15:39:34.166Z,100746.99
2018-04-24T15:42:02.528Z,100756.52
2018-04-24T15:44:30.903Z,100764.38
2018-04-24T15:46:59.462Z,100754.67
2018-04-24T15:49:27.915Z,100742.80
2018-04-24T15:51:56.255Z,100748.17
2018-04-24T15:54:24.692Z,100741.20
2018-04-24T15:56:53.053Z,100749.52
2018-04-24T15:59:21.877Z,100738.47
2018-04-24T16:01:50.231Z,100713.13
2018-04-24T16:04:18.950Z,100709.27
2018-04-24T16:06:47.346Z,100726.69
2018-04-24T16:09:15.711Z,100734.20
2018-04-24T16:11:44.777Z,100713.75
2018-04-24T16:14:13.424Z,100715.75
2018-04-24T16:16:41.809Z,100713.81
2018-04-24T16:19:10.193Z,100698.34
2018-04-24T16:21:38.631Z,100706.41
2018-04-24T16:24:07.037Z,100717.93
2018-04-24T16:26:35.387Z,100708.73
2018-04-24T16:29:03.794Z,100703.08
2018-04-24T16:31:32.487Z,100706.58
2018-04-24T16:34:01.190Z,100712.38
2018-04-24T16:36:29.851Z,100716.61
2018-04-24T16:38:58.218Z,100718.70
2018-04-24T16:41:26.724Z,100716.97
2018-04-24T16:43:55.151Z,100713.20
2018-04-24T16:46:24.078Z,100695.91
2018-04-24T16:48:53.634Z,100698.09
2018-04-24T16:51:22.375Z,100679.25
2018-04-24T16:53:50.745Z,100688.44
2018-04-24T16:56:19.103Z,100691.83
2018-04-24T16:58:47.472Z,100705.47
2018-04-24T17:01:15.815Z,100690.98
2018-04-24T17:03:44.583Z,100686.20
2018-04-24T17:06:13.282Z,100688.79
2018-04-24T17:08:41.666Z,100693.11
2018-04-24T17:11:10.033Z,100692.68
2018-04-24T17:13:38.819Z,100696.49
2018-04-24T17:16:07.507Z,100714.03
2018-04-24T17:18:36.448Z,100701.77
2018-04-24T17:21:07.501Z,100697.81
2018-04-24T17:23:35.927Z,100692.20
2018-04-24T17:26:04.287Z,100690.77
2018-04-24T17:28:32.972Z,100690.23
2018-04-24T17:31:01.359Z,100711.80
2018-04-24T17:33:29.754Z,100720.30
2018-04-24T17:35:58.161Z,100760.39
2018-04-24T17:38:26.851Z,100711.47
2018-04-24T17:40:55.223Z,100687.81
2018-04-24T17:43:24.896Z,100702.55
2018-04-24T17:45:53.270Z,100705.52
2018-04-24T17:48:21.732Z,100714.30
2018-04-24T17:50:50.243Z,100719.33
2018-04-24T17:53:18.613Z,100726.70
2018-04-24T17:55:47.001Z,100718.56
2018-04-24T17:58:15.360Z,100720.56
2018-04-24T18:00:44.056Z,100722.53
2018-04-24T18:03:12.709Z,100714.39
2018-04-24T18:05:41.161Z,100720.83
2018-04-24T18:08:09.554Z,100737.05
2018-04-24T18:10:38.134Z,100711.76
2018-04-24T18:13:07.221Z,100700.55
2018-04-24T18:15:35.584Z,100699.56
2018-04-24T18:18:03.944Z,100694.23
2018-04-24T18:20:34.455Z,100686.01
2018-04-24T18:23:04.130Z,100693.54
2018-04-24T18:25:34.160Z,100692.56
2018-04-24T18:28:05.245Z,100702.61
2018-04-24T18:30:34.305Z,100701.52
2018-04-24T18:33:02.669Z,100722.42
2018-04-24T18:35:31.063Z,100714.91
2018-04-24T18:37:59.757Z,100739.45
2018-04-24T18:40:28.156Z,100757.08
2018-04-24T18:42:56.524Z,100711.58
2018-04-24T18:45:24.914Z,100734.12
2018-04-24T18:47:54.440Z,100744.94
2018-04-24T18:50:22.826Z,100743.88
2018-04-24T18:55:50.872Z,100750.52
2018-04-24T18:58:19.302Z,100757.83
2018-04-24T19:00:47.661Z,100737.28
2018-04-24T19:03:16.133Z,100743.58
2018-04-24T19:05:44.825Z,100749.47
2018-04-24T19:08:13.760Z,100770.11
2018-04-24T19:10:42.804Z,100775.42
2018-04-24T19:13:11.218Z,100767.19
2018-04-24T19:15:39.751Z,100756.85
2018-04-24T19:18:08.464Z,100755.86
2018-04-24T19:20:37.798Z,100772.35
2018-04-24T19:23:06.349Z,100765.81
2018-04-24T19:25:40.486Z,100770.67
2018-04-24T19:28:08.913Z,100765.37
2018-04-24T19:30:37.321Z,100752.06
2018-04-24T19:33:05.730Z,100751.41
2018-04-24T19:35:34.209Z,100761.38
2018-04-24T19:38:05.945Z,100752.73
2018-04-24T19:43:41.084Z,100757.79
2018-04-24T19:46:10.844Z,100747.73
2018-04-24T19:48:52.210Z,100746.25
2018-04-24T19:51:20.630Z,100747.73
2018-04-24T19:53:49.210Z,100745.03
2018-04-24T19:56:18.775Z,100753.75
2018-04-24T19:58:47.214Z,100758.47
2018-04-24T20:01:15.564Z,100733.97
2018-04-24T20:03:44.614Z,100736.18
2018-04-24T20:06:13.835Z,100741.38
2018-04-24T20:08:54.384Z,100736.04
2018-04-24T20:11:23.510Z,100736.66
2018-04-24T20:13:51.976Z,100748.36
2018-04-24T20:16:20.671Z,100726.86
2018-04-24T20:18:49.092Z,100738.05
2018-04-24T20:21:18.039Z,100731.47
2018-04-24T20:23:47.068Z,100726.44
2018-04-24T20:26:15.436Z,100734.15
2018-04-24T20:28:43.866Z,100732.46
2018-04-24T20:31:12.411Z,100747.41
2018-04-24T20:33:40.783Z,100749.13
2018-04-24T20:36:09.145Z,100725.53
2018-04-24T20:38:37.561Z,100737.48
2018-04-24T20:41:06.005Z,100749.91
2018-04-24T20:43:34.423Z,100743.95
2018-04-24T20:46:02.792Z,100730.73
2018-04-24T20:48:31.144Z,100733.41
2018-04-24T20:50:59.576Z,100738.09
2018-04-24T20:53:28.221Z,100745.38
2018-04-24T20:55:56.992Z,100763.70
2018-04-24T20:58:25.371Z,100734.88
2018-04-24T21:00:53.878Z,100752.71
2018-04-24T21:03:22.253Z,100747.20
2018-04-24T21:05:50.949Z,100743.41
2018-04-24T21:08:19.385Z,100743.41
2018-04-24T21:10:48.019Z,100741.86
2018-04-24T21:13:16.611Z,100731.32
2018-04-24T21:15:49.008Z,100753.07
2018-04-24T21:18:18.528Z,100745.05
2018-04-24T21:20:46.908Z,100739.98
2018-04-24T21:23:15.268Z,100732.00
2018-04-24T21:25:43.713Z,100749.58
2018-04-24T21:28:12.240Z,100742.03
2018-04-24T21:30:41.238Z,100734.08
2018-04-24T21:33:18.330Z,100734.11
2018-04-24T21:35:46.757Z,100744.70
2018-04-24T21:38:15.241Z,100747.26
2018-04-24T21:43:22.964Z,100741.91
2018-04-24T21:45:53.984Z,100742.52
2018-04-24T21:48:22.773Z,100742.52
2018-04-24T21:50:55.482Z,100746.38
2018-04-24T21:53:23.840Z,100736.66
2018-04-24T21:55:59.034Z,100737.27
2018-04-24T21:58:27.577Z,100741.60
2018-04-24T22:00:55.990Z,100737.84
2018-04-24T22:03:24.375Z,100738.70
2018-04-24T22:05:55.733Z,100749.02
2018-04-24T22:08:24.520Z,100734.16
2018-04-24T22:10:58.551Z,100740.59
2018-04-24T22:13:33.837Z,100739.47
2018-04-24T22:16:02.365Z,100744.30
2018-04-24T22:18:30.838Z,100736.80
2018-04-24T22:21:00.335Z,100737.21
2018-04-24T22:23:28.852Z,100734.67
2018-04-24T22:25:57.277Z,100729.22
2018-04-24T22:28:26.878Z,100727.22
2018-04-24T22:30:55.339Z,100729.41
2018-04-24T22:33:23.736Z,100727.44
2018-04-24T22:35:52.254Z,100724.90
2018-04-24T22:38:20.652Z,100729.13
2018-04-24T22:40:48.996Z,100734.22
2018-04-24T22:43:18.630Z,100734.19
2018-04-24T22:45:46.999Z,100741.41
2018-04-24T22:48:16.631Z,100737.75
2018-04-24T22:50:45.365Z,100743.34
2018-04-24T22:53:14.184Z,100732.28
2018-04-24T22:55:42.960Z,100744.14
2018-04-24T22:58:11.629Z,100731.98
2018-04-24T23:00:40.188Z,100733.17
2018-04-24T23:03:10.615Z,100730.62
2018-04-24T23:05:38.976Z,100736.55
2018-04-24T23:08:07.331Z,100726.48
2018-04-24T23:10:48.110Z,100733.73
2018-04-24T23:13:29.323Z,100730.36
2018-04-24T23:16:09.600Z,100727.34
2018-04-24T23:18:51.865Z,100727.03
2018-04-24T23:21:20.538Z,100730.59
2018-04-24T23:23:48.959Z,100725.56
2018-04-24T23:26:17.588Z,100725.50
2018-04-24T23:28:48.179Z,100730.52
2018-04-24T23:31:17.270Z,100729.31
2018-04-24T23:33:46.337Z,100722.98
2018-04-24T23:36:15.330Z,100730.02
2018-04-24T23:38:43.819Z,100726.77
2018-04-24T23:41:13.361Z,100732.37
2018-04-24T23:43:42.217Z,100729.64
2018-04-24T23:46:12.652Z,100722.67
2018-04-24T23:48:41.495Z,100726.27
2018-04-24T23:51:09.953Z,100733.67
2018-04-24T23:53:38.962Z,100723.27
2018-04-24T23:56:07.540Z,100726.48
2018-04-24T23:58:36.737Z,100724.12
